Washburn, IA (50706)

6:23 AM CDT on September 20, 2014 (GMT -0500)
Lanehaven Farms, Inc. | Change Station
CLOSE
Current Station
Personal Weather Station
Location: Waterloo, IA
Elevation: 950 ft
Nearby Weather Stations

Elev 950 ft 42.41 °N, 92.34 °W | Updated 14 minutes ago

Mostly Cloudy
Mostly Cloudy
66.2 °F
Feels Like 66.2 °F
N
3.0
Wind Variable Wind from West
Gusts 10.0 mph

Today
High -- | Low -- °F
--% Chance of Precip.
Yesterday
High -- | Low -- °F
Precip. -- in
6:54 AM 7:09 PM
Waning Crescent, 13% visible
Pressure 29.80 in
Visibility 10.0 miles
Clouds Few 1500 ft
Dew Point 65 °F
Humidity 94%
Rainfall 0.23 in
Snow Depth Not available.
UV 0 out of 12
Pollen 3.20 out of 12
Air Quality Not available.
Flu Activity Not available.
METAR KALO 201054Z 22008KT 10SM FEW015 19/17 A2981 RMK AO2 PK WND 15046/1020 RAE33 SLP091 P0007 T01940172

More Conditions Fewer Conditions

Pressure 29.80 in
Visibility 10.0 miles
Clouds Few 1500 ft
Dew Point 65 °F
Humidity 94%
Rainfall 0.23 in
Snow Depth Not available.
UV 0 out of 12
Pollen 3.20 out of 12
Air Quality Not available.
Flu Activity Not available.
METAR KALO 201054Z 22008KT 10SM FEW015 19/17 A2981 RMK AO2 PK WND 15046/1020 RAE33 SLP091 P0007 T01940172

More Conditions Fewer Conditions

10-Day Weather Forecast

Almanac

Astronomy

Sep. 20, 2014 Rise Set
Actual Time 6:54 AM CDT 7:09 PM CDT
Civil Twilight 6:26 AM CDT 7:37 PM CDT
Nautical Twilight 5:53 AM CDT 8:10 PM CDT
Astronomical Twilight 5:19 AM CDT 8:44 PM CDT
Moon 3:30 AM CDT 5:16 PM CDT
Length of Visible Light 13h 11m
Length of Day
12h 15m
Tomorrow will be 2m 51s shorter.
Waning Crescent, 13% of the Moon is Illuminated
Today
Waning Crescent
Sep 24
New
Oct 1
First Quarter
Oct 8
Full
Oct 15
Last Quarter

Today's Extremes

State Highs State Lows

Community

WunderPhotos

Upload Photos

1,754,832 photos uploaded!

WunderBlogs® & News

Nearby

Snow Depth

Station Depth Elevation
No new snow has been reported.

Earthquake Activity

City Distance Mag. Time & Date
No recent earthquake activity has been reported nearby.
Minimum magnitude displayed is 2.5.

Coastal Water Temperatures

Place Temperature
No Stations Reporting

Nearby Weather Stations